Time;durP1;ratioP1;P1;durP2;ratioP2;P2;SDS_P1;SDS_P2;PMS_P1;PMS_P2;Temp;Humidity;BMP_temperature;BMP_pressure;BME280_temperature;BME280_humidity;BME280_pressure;Samples;Min_cycle;Max_cycle;Signal;HPM_P1;HPM_P2
2022/02/10 00:14:24;;;;;;;4.97;3.60;;;;;;;8.02;91.42;101090.25;5073220;28;20646;-72
2022/02/10 00:16:31;;;;;;;3.87;2.47;;;;;;;8.03;90.67;101086.44;5072200;28;20279;-72
2022/02/10 00:21:29;;;;;;;3.00;2.40;;;;;;;8.05;90.24;101094.31;5073548;28;20277;-72
2022/02/10 00:24:34;;;;;;;4.20;3.87;;;;;;;8.03;89.72;101096.50;5073322;28;20163;-72
2022/02/10 00:35:20;;;;;;;3.80;3.47;;;;;;;8.03;90.16;101104.66;5072192;28;20205;-72
2022/02/10 00:38:03;;;;;;;3.33;3.03;;;;;;;8.05;89.76;101091.59;5072392;28;20273;-72
2022/02/10 00:40:31;;;;;;;3.50;2.43;;;;;;;8.03;90.01;101089.16;5072275;28;20666;-72
2022/02/10 00:42:59;;;;;;;3.23;2.43;;;;;;;8.05;88.86;101100.56;5070852;28;20257;-72
2022/02/10 00:45:26;;;;;;;2.80;2.47;;;;;;;8.05;88.39;101092.41;5071910;28;20253;-72
2022/02/10 00:48:11;;;;;;;3.23;2.93;;;;;;;8.06;88.75;101087.78;5072117;28;20171;-72
2022/02/10 00:50:39;;;;;;;3.43;3.13;;;;;;;8.05;88.74;101080.72;5070696;28;20660;-72
2022/02/10 00:53:13;;;;;;;3.27;2.97;;;;;;;8.04;88.32;101082.63;5072049;28;20171;-72
2022/02/10 00:55:41;;;;;;;3.13;2.83;;;;;;;8.06;87.84;101085.88;5071797;28;20675;-72
2022/02/10 00:58:10;;;;;;;3.17;2.73;;;;;;;8.03;88.58;101077.47;5070647;28;20274;-73
2022/02/10 01:02:16;;;;;;;3.30;2.97;;;;;;;8.05;87.74;101075.25;5071845;28;20173;-72
2022/02/10 01:30:27;;;;;;;2.97;2.70;;;;;;;8.05;86.89;101086.16;5071501;28;20649;-72
2022/02/10 01:32:56;;;;;;;3.37;2.80;;;;;;;8.05;86.88;101078.00;5071200;28;20203;-72
2022/02/10 01:35:24;;;;;;;3.10;2.83;;;;;;;8.02;86.58;101086.72;5070828;28;20669;-72
2022/02/10 01:37:50;;;;;;;4.87;2.83;;;;;;;8.00;87.60;101073.38;5071176;28;20173;-72
2022/02/10 02:04:22;;;;;;;5.63;3.63;;;;;;;8.00;86.83;101021.69;5070811;28;20703;-72
2022/02/10 02:06:50;;;;;;;3.67;3.37;;;;;;;8.04;86.98;101013.78;5070688;28;20179;-72
2022/02/10 02:09:17;;;;;;;3.73;3.43;;;;;;;8.05;86.57;101009.97;5070780;28;20551;-73
2022/02/10 02:11:45;;;;;;;3.30;3.00;;;;;;;8.05;87.12;101004.50;5070809;28;20174;-73
2022/02/10 02:14:16;;;;;;;3.63;3.33;;;;;;;7.97;87.41;101002.41;5070831;28;20198;-73
2022/02/10 02:16:52;;;;;;;3.57;3.27;;;;;;;7.97;87.29;101007.84;5070538;28;20681;-72
2022/02/10 02:19:18;;;;;;;3.47;3.17;;;;;;;7.94;87.97;101001.03;5070728;28;20650;-72
2022/02/10 02:21:44;;;;;;;3.43;3.13;;;;;;;7.94;87.92;100997.50;5070755;28;20274;-72
2022/02/10 02:24:19;;;;;;;3.90;3.43;;;;;;;7.93;87.89;101001.31;5070644;28;20201;-72
2022/02/10 02:26:46;;;;;;;4.97;4.47;;;;;;;7.94;87.61;100990.16;5070457;28;20649;-73
2022/02/10 02:29:13;;;;;;;4.37;3.97;;;;;;;7.98;87.63;100993.94;5070591;28;20674;-73
2022/02/10 02:31:54;;;;;;;4.57;4.17;;;;;;;7.98;87.69;100983.06;5070486;28;20644;-72
2022/02/10 03:06:44;;;;;;;4.80;4.40;;;;;;;8.06;84.82;100949.00;5065250;28;20216;-72
2022/02/10 03:09:14;;;;;;;2.83;2.57;;;;;;;8.04;85.80;100946.56;5073965;28;20258;-72
2022/02/10 03:11:41;;;;;;;4.93;4.50;;;;;;;8.04;85.33;100943.03;5073845;28;20536;-72
2022/02/10 03:14:15;;;;;;;6.70;4.77;;;;;;;8.03;84.88;100939.50;5073919;28;20177;-72
2022/02/10 04:00:14;;;;;;;4.20;3.80;;;;;;;8.05;83.86;100852.13;5072082;28;20181;-73
2022/02/10 04:08:14;;;;;;;4.97;3.90;;;;;;;7.95;85.28;100860.38;5071941;28;20206;-72
2022/02/10 04:15:59;;;;;;;3.87;3.57;;;;;;;7.95;85.24;100841.31;5071654;28;20563;-72
2022/02/10 04:30:10;;;;;;;3.17;2.87;;;;;;;8.10;86.15;100813.16;5072888;28;20170;-73
2022/02/10 05:17:37;;;;;;;4.10;2.70;;;;;;;7.32;90.03;100738.72;5070964;28;20180;-73
2022/02/10 05:20:13;;;;;;;3.17;2.87;;;;;;;7.27;90.31;100733.34;5070775;28;20646;-72
2022/02/10 05:33:35;;;;;;;3.50;3.20;;;;;;;7.26;91.49;100736.34;5071085;28;20182;-73
2022/02/10 05:35:51;;;;;;;7.53;5.77;;;;;;;7.31;91.56;100739.81;5070024;28;20225;-72
2022/02/10 05:54:18;;;;;;;5.13;2.33;;;;;;;6.94;93.88;100729.44;5070514;28;20224;-73
2022/02/10 06:00:08;;;;;;;2.93;2.67;;;;;;;6.82;94.61;100713.50;5068993;28;20643;-72
2022/02/10 06:45:16;;;;;;;5.90;5.30;;;;;;;6.49;100.00;100715.00;5070162;28;20273;-73
2022/02/10 07:56:29;;;;;;;6.77;5.10;;;;;;;7.01;100.00;100719.09;5072912;28;20216;-74
2022/02/10 07:59:32;;;;;;;6.20;5.60;;;;;;;6.96;100.00;100721.03;5072531;28;20178;-72
2022/02/10 08:51:04;;;;;;;2.87;2.67;;;;;;;6.94;98.45;100721.28;5063870;28;20194;-72
2022/02/10 08:56:11;;;;;;;6.27;4.93;;;;;;;6.93;97.20;100719.66;5071138;28;20245;-72
2022/02/10 09:04:28;;;;;;;2.00;1.90;;;;;;;6.95;97.14;100724.84;5067770;28;20183;-73
2022/02/10 10:03:20;;;;;;;8.07;2.50;;;;;;;6.94;97.83;100756.59;5070536;28;20240;-73
2022/02/10 10:06:38;;;;;;;3.53;3.13;;;;;;;6.92;99.39;100742.50;5070157;28;20174;-73
2022/02/10 10:14:11;;;;;;;3.53;3.23;;;;;;;6.87;100.00;100737.09;5070009;28;20577;-73
2022/02/10 10:16:50;;;;;;;7.30;5.83;;;;;;;6.85;100.00;100742.00;5070094;28;20543;-72
2022/02/10 10:19:33;;;;;;;4.07;3.77;;;;;;;6.83;100.00;100734.13;5070287;28;20166;-73
2022/02/10 10:24:48;;;;;;;5.50;4.10;;;;;;;6.83;100.00;100711.59;5070282;28;20263;-72
2022/02/10 10:57:14;;;;;;;3.13;2.57;;;;;;;6.37;100.00;100746.28;5073554;28;20298;-71
2022/02/10 13:03:21;;;;;;;2.40;2.30;;;;;;;5.89;100.00;100707.81;5072253;28;20251;-71
2022/02/10 14:09:41;;;;;;;0.00;0.00;;;;;;;5.78;100.00;100815.44;5070996;28;20205;-73
2022/02/10 14:15:30;;;;;;;1.47;0.97;;;;;;;5.74;100.00;100827.91;5070579;28;20691;-71
2022/02/10 14:17:55;;;;;;;0.73;0.73;;;;;;;5.77;100.00;100813.81;5070383;28;20218;-71
2022/02/10 14:21:08;;;;;;;0.20;0.20;;;;;;;5.76;100.00;100833.88;5070528;28;20181;-71
2022/02/10 14:28:10;;;;;;;0.57;0.57;;;;;;;5.80;100.00;100848.53;5072686;28;20201;-70
2022/02/10 14:30:35;;;;;;;1.63;0.90;;;;;;;5.83;100.00;100839.06;5074412;28;20206;-71
2022/02/10 14:33:01;;;;;;;3.97;2.63;;;;;;;5.87;100.00;100832.00;5074420;28;20170;-71
2022/02/10 14:35:41;;;;;;;1.90;0.90;;;;;;;5.90;100.00;100840.44;5073972;28;20198;-71
2022/02/10 14:41:14;;;;;;;2.73;2.20;;;;;;;5.98;100.00;100836.38;5074287;28;20246;-71
2022/02/10 16:18:13;;;;;;;0.47;0.47;;;;;;;5.60;97.26;100905.41;5072451;28;20231;-71
2022/02/10 16:20:42;;;;;;;0.30;0.30;;;;;;;5.61;96.97;100896.19;5072360;28;20181;-71
2022/02/10 16:23:15;;;;;;;8.63;0.63;;;;;;;5.60;96.80;100891.84;5072012;28;20170;-73
2022/02/10 16:25:47;;;;;;;0.40;0.20;;;;;;;5.59;97.28;100891.03;5071966;28;20222;-73
2022/02/10 16:28:25;;;;;;;0.43;0.43;;;;;;;5.57;97.55;100846.31;5072262;28;20538;-71
2022/02/10 16:30:51;;;;;;;0.47;0.47;;;;;;;5.56;97.52;100877.22;5072287;28;20178;-70
2022/02/10 16:33:17;;;;;;;0.40;0.40;;;;;;;5.55;97.08;100889.97;5072571;28;20566;-73
2022/02/10 16:35:43;;;;;;;6.73;1.80;;;;;;;5.54;97.28;100893.75;5071609;28;20218;-73
2022/02/10 16:38:10;;;;;;;0.30;0.30;;;;;;;5.53;97.04;100885.88;5071950;28;20634;-72
2022/02/10 16:40:39;;;;;;;1.00;0.90;;;;;;;5.51;97.30;100883.44;5071871;28;20203;-73
2022/02/10 16:43:05;;;;;;;0.60;0.60;;;;;;;5.50;98.00;100898.09;5071864;28;20183;-73
2022/02/10 16:45:31;;;;;;;10.33;1.47;;;;;;;5.47;98.18;100885.03;5071587;28;20526;-71
2022/02/10 16:47:57;;;;;;;0.57;0.57;;;;;;;5.47;97.88;100898.59;5071724;28;20618;-70
2022/02/10 16:50:22;;;;;;;0.77;0.77;;;;;;;5.45;98.42;100892.63;5071472;28;20175;-71
2022/02/10 16:52:55;;;;;;;0.60;0.60;;;;;;;5.46;98.38;100886.13;5070615;28;20174;-71
2022/02/10 17:14:30;;;;;;;0.30;0.30;;;;;;;5.47;97.90;100895.06;5071158;28;20227;-70
2022/02/10 17:20:00;;;;;;;0.33;0.33;;;;;;;5.44;98.73;100887.47;5071165;28;20592;-71
2022/02/10 17:25:15;;;;;;;0.20;0.13;;;;;;;5.40;99.69;100889.91;5070679;28;20236;-73
2022/02/10 17:27:44;;;;;;;1.63;1.17;;;;;;;5.38;100.00;100900.22;5071034;28;20171;-73
2022/02/10 17:30:49;;;;;;;0.93;0.93;;;;;;;5.35;100.00;100901.56;5070885;28;20623;-71
2022/02/10 17:33:25;;;;;;;1.67;1.27;;;;;;;5.32;100.00;100904.78;5070580;28;20179;-72
2022/02/10 17:54:53;;;;;;;0.80;0.80;;;;;;;5.16;100.00;100942.88;5067639;28;20323;-71
2022/02/10 17:57:18;;;;;;;2.00;1.87;;;;;;;5.15;100.00;100933.13;5070059;28;20301;-71
2022/02/10 17:59:44;;;;;;;0.80;0.70;;;;;;;5.14;100.00;100932.31;5070601;28;20174;-71
2022/02/10 18:02:11;;;;;;;1.23;1.23;;;;;;;5.11;100.00;100927.44;5070201;28;20630;-71
2022/02/10 18:04:36;;;;;;;0.20;0.20;;;;;;;5.10;100.00;100928.53;5070156;28;20174;-71
2022/02/10 18:07:03;;;;;;;1.63;1.53;;;;;;;5.09;100.00;100937.72;5070394;28;20190;-71
2022/02/10 18:12:51;;;;;;;1.20;1.03;;;;;;;5.07;100.00;100939.88;5070611;28;20263;-72
2022/02/10 18:14:52;;;;;;;0.73;0.60;;;;;;;5.06;100.00;100944.50;5069956;28;20401;-71
2022/02/10 18:17:29;;;;;;;0.90;0.77;;;;;;;5.05;100.00;100950.13;5070112;28;20256;-71
2022/02/10 18:20:03;;;;;;;3.33;1.57;;;;;;;5.02;100.00;100947.97;5070285;28;20182;-71
2022/02/10 19:08:20;;;;;;;2.30;2.10;;;;;;;4.78;100.00;100966.50;5069562;28;20178;-72
2022/02/10 19:10:48;;;;;;;2.37;1.87;;;;;;;4.78;100.00;100958.38;5069469;28;20171;-72
2022/02/10 19:13:17;;;;;;;1.60;1.50;;;;;;;4.80;100.00;100971.66;5069114;28;20531;-71
2022/02/10 19:15:43;;;;;;;2.97;1.80;;;;;;;4.80;100.00;100966.25;5072207;28;20198;-72
2022/02/10 19:18:09;;;;;;;5.83;3.17;;;;;;;4.78;100.00;100972.72;5073330;28;20235;-71
2022/02/10 19:20:37;;;;;;;2.67;2.17;;;;;;;4.81;100.00;100973.28;5073330;28;20174;-71
2022/02/10 19:23:04;;;;;;;1.70;1.50;;;;;;;4.78;100.00;100980.84;5072820;28;20186;-71
2022/02/10 19:25:39;;;;;;;3.10;0.67;;;;;;;4.75;100.00;100975.13;5072844;28;20281;-71
2022/02/10 19:28:06;;;;;;;0.60;0.60;;;;;;;4.71;100.00;100974.00;5073256;28;20486;-71
2022/02/10 19:30:35;;;;;;;1.17;1.03;;;;;;;4.69;100.00;100971.56;5073178;28;20178;-71
2022/02/10 19:33:02;;;;;;;2.10;1.10;;;;;;;4.70;100.00;100973.19;5073206;28;20174;-74
2022/02/10 19:35:31;;;;;;;1.33;1.23;;;;;;;4.70;100.00;100978.63;5072657;28;20297;-72
2022/02/10 19:38:03;;;;;;;1.07;0.97;;;;;;;4.64;100.00;100989.66;5073062;28;20607;-71
2022/02/10 19:40:33;;;;;;;2.30;0.93;;;;;;;4.53;100.00;100983.34;5073044;28;20174;-71
2022/02/10 19:42:58;;;;;;;0.20;0.20;;;;;;;4.48;100.00;100986.00;5073050;28;20239;-71
2022/02/10 19:45:24;;;;;;;0.67;0.67;;;;;;;4.43;100.00;100950.78;5072706;28;20179;-71
2022/02/10 19:47:50;;;;;;;0.57;0.50;;;;;;;4.35;100.00;100978.31;5072955;28;20619;-71
2022/02/10 19:50:21;;;;;;;0.40;0.40;;;;;;;4.23;100.00;100970.38;5072911;28;20170;-71
2022/02/10 19:52:49;;;;;;;2.63;0.90;;;;;;;4.18;100.00;100978.41;5072611;28;20546;-74
2022/02/10 19:55:20;;;;;;;0.60;0.60;;;;;;;4.14;100.00;100958.38;5068923;28;20745;-71
2022/02/10 19:57:51;;;;;;;0.33;0.33;;;;;;;4.09;100.00;100956.44;5064273;28;20171;-71
2022/02/10 20:00:21;;;;;;;9.20;1.10;;;;;;;4.05;100.00;100962.59;5071027;28;20760;-70
2022/02/10 20:02:47;;;;;;;0.30;0.30;;;;;;;4.02;100.00;100946.91;5072722;28;20196;-73
2022/02/10 20:05:12;;;;;;;0.80;0.80;;;;;;;4.00;100.00;100955.25;5072789;28;20182;-73
2022/02/10 20:07:39;;;;;;;0.77;0.77;;;;;;;3.99;100.00;100952.81;5071848;28;20175;-74
2022/02/10 20:10:06;;;;;;;0.73;0.70;;;;;;;3.98;100.00;100962.00;5072874;28;20614;-71
2022/02/10 20:12:33;;;;;;;1.83;0.53;;;;;;;3.98;100.00;100957.41;5072780;28;20178;-71
2022/02/10 20:14:58;;;;;;;1.47;1.37;;;;;;;3.98;100.00;100953.91;5072760;28;20171;-73
2022/02/10 20:17:23;;;;;;;0.40;0.33;;;;;;;3.95;100.00;100955.22;5074544;28;20201;-75
2022/02/10 20:19:49;;;;;;;0.80;0.80;;;;;;;3.94;100.00;100964.41;5073936;28;20557;-74
2022/02/10 20:22:14;;;;;;;0.70;0.60;;;;;;;3.91;100.00;100954.09;5071319;28;20166;-74
2022/02/10 20:24:40;;;;;;;0.40;0.40;;;;;;;3.88;100.00;100951.88;5073177;28;20167;-73
2022/02/10 20:27:06;;;;;;;0.87;0.73;;;;;;;3.88;100.00;100960.00;5070812;28;20189;-74
2022/02/10 20:29:32;;;;;;;0.30;0.30;;;;;;;3.86;100.00;100962.16;5072560;28;20173;-74
2022/02/10 20:31:57;;;;;;;0.80;0.60;;;;;;;3.86;100.00;100965.66;5072515;28;20642;-70
2022/02/10 20:34:23;;;;;;;4.93;1.47;;;;;;;3.83;100.00;100968.88;5072503;28;20170;-71
2022/02/10 20:36:49;;;;;;;0.63;0.63;;;;;;;3.83;100.00;100978.88;5072271;28;20257;-71
2022/02/10 20:39:21;;;;;;;1.07;1.07;;;;;;;3.82;100.00;100967.25;5072359;28;20764;-70
2022/02/10 20:41:51;;;;;;;0.27;0.27;;;;;;;3.80;100.00;100964.00;5072239;28;20442;-70
2022/02/10 20:44:17;;;;;;;0.20;0.20;;;;;;;3.77;100.00;100951.00;5072139;28;20221;-71
2022/02/10 20:46:44;;;;;;;0.40;0.40;;;;;;;3.74;100.00;100954.16;5072111;28;20174;-72
2022/02/10 20:49:16;;;;;;;0.10;0.07;;;;;;;3.73;100.00;100963.34;5072176;28;20170;-74
2022/02/10 20:51:47;;;;;;;0.20;0.20;;;;;;;3.73;100.00;100962.53;5072105;28;20205;-72
2022/02/10 20:54:13;;;;;;;0.40;0.40;;;;;;;3.70;100.00;100946.84;5072131;28;20250;-75
2022/02/10 20:56:38;;;;;;;0.20;0.20;;;;;;;3.71;100.00;100957.38;5071754;28;20289;-71
2022/02/10 20:59:18;;;;;;;0.00;0.00;;;;;;;3.69;100.00;100959.53;5072017;28;20166;-72
2022/02/10 21:01:47;;;;;;;0.50;0.50;;;;;;;3.66;100.00;100943.84;5072014;28;20261;-74
2022/02/10 21:04:13;;;;;;;0.73;0.40;;;;;;;3.67;100.00;100947.34;5071925;28;20167;-74
2022/02/10 21:09:44;;;;;;;0.50;0.50;;;;;;;3.65;100.00;100952.19;5071019;28;20191;-74
2022/02/10 21:12:12;;;;;;;0.30;0.30;;;;;;;3.64;100.00;100937.88;5072030;28;20170;-74
2022/02/10 21:14:38;;;;;;;1.40;0.57;;;;;;;3.63;100.00;100930.84;5071611;28;20277;-74
2022/02/10 21:17:10;;;;;;;0.27;0.27;;;;;;;3.63;100.00;100930.84;5071284;28;20198;-70
2022/02/10 21:19:36;;;;;;;0.83;0.60;;;;;;;3.63;100.00;100938.94;5068099;28;20213;-74
2022/02/10 21:22:07;;;;;;;0.50;0.50;;;;;;;3.62;100.00;100944.56;5071128;28;20176;-73
2022/02/10 21:24:34;;;;;;;0.70;0.50;;;;;;;3.61;100.00;100942.94;5071215;28;20251;-74
2022/02/10 21:29:45;;;;;;;0.33;0.33;;;;;;;3.63;100.00;100938.13;5071387;28;20725;-74
2022/02/10 21:32:11;;;;;;;0.13;0.13;;;;;;;3.61;100.00;100945.63;5071257;28;20198;-74
2022/02/10 21:34:48;;;;;;;0.60;0.60;;;;;;;3.64;100.00;100951.38;5071278;28;20213;-75
2022/02/10 21:37:18;;;;;;;1.83;0.80;;;;;;;3.64;100.00;100945.16;5070593;28;20562;-72
2022/02/10 21:39:57;;;;;;;0.57;0.47;;;;;;;3.62;100.00;100945.41;5071052;28;20199;-71
2022/02/10 22:17:05;;;;;;;1.00;0.70;;;;;;;3.46;100.00;100957.91;5070712;28;20256;-73
2022/02/10 22:19:44;;;;;;;0.13;0.13;;;;;;;3.38;100.00;100958.34;5070663;28;20166;-71
2022/02/10 22:22:13;;;;;;;0.00;0.00;;;;;;;3.32;98.65;100956.63;5069372;28;20174;-71
2022/02/10 22:24:39;;;;;;;0.00;0.00;;;;;;;3.32;97.34;100961.22;5070623;28;20167;-71
2022/02/10 22:27:05;;;;;;;0.10;0.10;;;;;;;3.28;96.87;100966.31;5070497;28;20193;-73
2022/02/10 22:29:40;;;;;;;0.10;0.10;;;;;;;3.24;96.40;100962.50;5070778;28;20177;-73
2022/02/10 22:32:25;;;;;;;0.00;0.00;;;;;;;3.22;96.32;100962.75;5070681;28;20166;-71
2022/02/10 22:34:54;;;;;;;0.00;0.00;;;;;;;3.19;95.29;100955.16;5070509;28;20661;-71
2022/02/10 22:37:20;;;;;;;0.00;0.00;;;;;;;3.17;94.71;100951.03;5070488;28;20202;-71
2022/02/10 22:39:48;;;;;;;0.10;0.10;;;;;;;3.18;93.54;100960.78;5069210;28;20653;-73
2022/02/10 22:42:14;;;;;;;0.00;0.00;;;;;;;3.19;93.32;100957.84;5070595;28;20714;-73
2022/02/10 22:44:40;;;;;;;0.30;0.30;;;;;;;3.19;92.69;100954.34;5070474;28;20167;-71
2022/02/10 22:47:06;;;;;;;0.03;0.00;;;;;;;3.20;92.36;100967.56;5070537;28;20189;-71
2022/02/10 22:49:32;;;;;;;0.07;0.07;;;;;;;3.20;91.76;100962.19;5071548;28;20250;-71
2022/02/10 22:51:58;;;;;;;0.10;0.10;;;;;;;3.22;92.05;100964.63;5074558;28;20296;-71
2022/02/10 22:54:23;;;;;;;0.33;0.20;;;;;;;3.23;91.75;100963.56;5074297;28;20182;-74
2022/02/10 22:56:49;;;;;;;0.10;0.10;;;;;;;3.24;91.90;100957.09;5074341;28;20578;-71
2022/02/10 22:59:15;;;;;;;1.30;0.13;;;;;;;3.24;91.78;100959.78;5074258;28;20614;-74
2022/02/10 23:01:42;;;;;;;0.00;0.00;;;;;;;3.23;92.54;100953.56;5074375;28;20195;-71
2022/02/10 23:04:10;;;;;;;0.20;0.20;;;;;;;3.21;93.01;100957.59;5074261;28;20178;-72
2022/02/10 23:06:36;;;;;;;0.00;0.00;;;;;;;3.19;93.14;100968.66;5073968;28;20287;-71
2022/02/10 23:09:23;;;;;;;0.47;0.33;;;;;;;3.17;94.03;100948.34;5074104;28;20535;-71
2022/02/10 23:11:49;;;;;;;0.33;0.20;;;;;;;3.14;93.77;100955.06;5074074;28;20166;-71
2022/02/10 23:14:15;;;;;;;0.30;0.30;;;;;;;3.16;94.08;100952.91;5074021;28;20170;-71
2022/02/10 23:16:41;;;;;;;0.83;0.83;;;;;;;3.17;94.12;100946.47;5073833;28;20289;-71
2022/02/10 23:19:06;;;;;;;1.10;0.37;;;;;;;3.17;94.52;100951.84;5073922;28;20194;-70
2022/02/10 23:21:32;;;;;;;0.10;0.10;;;;;;;3.19;94.44;100959.72;5072564;28;20699;-73
2022/02/10 23:23:57;;;;;;;0.10;0.10;;;;;;;3.17;94.99;100962.66;5073938;28;20174;-73
2022/02/10 23:26:24;;;;;;;0.20;0.20;;;;;;;3.19;95.26;100970.53;5073642;28;20182;-74
2022/02/10 23:28:53;;;;;;;0.10;0.10;;;;;;;3.19;96.13;100968.66;5073842;28;20167;-73
2022/02/10 23:31:21;;;;;;;0.50;0.30;;;;;;;3.21;96.43;100979.19;5073545;28;20214;-71
2022/02/10 23:33:59;;;;;;;0.20;0.20;;;;;;;3.19;96.79;100975.94;5073741;28;20178;-74
2022/02/10 23:36:48;;;;;;;0.17;0.17;;;;;;;3.19;98.18;100975.94;5073522;28;20760;-73
2022/02/10 23:39:25;;;;;;;0.47;0.20;;;;;;;3.20;99.49;100969.47;5073645;28;20218;-74
2022/02/10 23:44:33;;;;;;;0.40;0.40;;;;;;;3.20;100.00;100974.88;5073601;28;20166;-73
2022/02/10 23:47:00;;;;;;;1.07;1.00;;;;;;;3.18;100.00;100974.28;5073458;28;20197;-71
2022/02/10 23:49:27;;;;;;;0.97;0.97;;;;;;;3.20;100.00;100972.16;5073392;28;20591;-71
2022/02/10 23:52:02;;;;;;;0.70;0.70;;;;;;;3.21;100.00;100979.19;5073457;28;20170;-71
2022/02/10 23:54:31;;;;;;;0.40;0.40;;;;;;;3.20;100.00;100970.28;5073222;28;20280;-71
